Time;durP1;ratioP1;P1;durP2;ratioP2;P2;SDS_P1;SDS_P2;PMS_P1;PMS_P2;Temp;Humidity;BMP_temperature;BMP_pressure;BME280_temperature;BME280_humidity;BME280_pressure;Samples;Min_cycle;Max_cycle;Signal;HPM_P1;HPM_P2
2020/12/12 00:00:57;;;;;;;38.60;17.90;;;;;;;5.51;100.00;99007.00;4969014;28;20035;-72
2020/12/12 00:03:23;;;;;;;38.50;16.80;;;;;;;5.54;100.00;98998.66;4969526;28;20031;-72
2020/12/12 00:05:49;;;;;;;39.65;18.08;;;;;;;5.54;100.00;99002.16;4968983;28;20034;-72
2020/12/12 00:08:14;;;;;;;36.00;17.05;;;;;;;5.55;100.00;99005.63;4968792;28;20038;-72
2020/12/12 00:10:40;;;;;;;41.90;18.30;;;;;;;5.53;100.00;98997.03;4969244;28;20043;-72
2020/12/12 00:13:08;;;;;;;38.72;18.42;;;;;;;5.54;100.00;98998.66;4984371;28;20058;-72
2020/12/12 00:15:35;;;;;;;39.47;17.92;;;;;;;5.55;100.00;99002.97;4968726;28;20030;-72
2020/12/12 00:18:00;;;;;;;42.10;17.98;;;;;;;5.54;100.00;98998.66;4968949;28;20035;-72
2020/12/12 00:20:26;;;;;;;40.08;16.98;;;;;;;5.52;100.00;98998.81;4968771;28;20491;-72
2020/12/12 00:22:51;;;;;;;34.25;17.75;;;;;;;5.53;100.00;99012.97;4967393;28;20443;-72
2020/12/12 00:25:17;;;;;;;39.15;18.58;;;;;;;5.55;100.00;99013.63;4969152;28;20089;-72
2020/12/12 00:27:43;;;;;;;34.97;16.70;;;;;;;5.55;100.00;99009.13;4968208;28;20134;-72
2020/12/12 00:30:09;;;;;;;41.55;18.05;;;;;;;5.57;100.00;99007.13;4969203;28;20134;-72
2020/12/12 00:32:34;;;;;;;44.45;17.58;;;;;;;5.59;100.00;99013.09;4968545;28;20451;-72
2020/12/12 00:35:00;;;;;;;40.03;16.75;;;;;;;5.59;100.00;99015.75;4969708;28;20487;-72
2020/12/12 00:37:25;;;;;;;40.45;16.95;;;;;;;5.62;100.00;99014.53;4967935;28;20463;-72
2020/12/12 00:39:51;;;;;;;42.45;17.48;;;;;;;5.64;100.00;99017.88;4967799;28;20023;-72
2020/12/12 00:42:17;;;;;;;40.97;17.70;;;;;;;5.66;100.00;99021.16;4968826;28;20530;-71
2020/12/12 00:44:42;;;;;;;39.28;17.92;;;;;;;5.65;100.00;99009.69;4969099;28;20022;-71
2020/12/12 00:47:08;;;;;;;36.17;17.05;;;;;;;5.67;100.00;99022.81;4968121;28;20089;-71
2020/12/12 00:49:33;;;;;;;38.85;16.70;;;;;;;5.66;100.00;99011.34;4969349;28;20038;-71
2020/12/12 00:51:59;;;;;;;35.83;16.80;;;;;;;5.70;100.00;99023.28;4968481;28;20035;-71
2020/12/12 00:54:24;;;;;;;35.90;16.58;;;;;;;5.75;100.00;99020.09;4969508;28;20034;-71
2020/12/12 00:56:50;;;;;;;38.08;16.63;;;;;;;5.75;100.00;99020.09;4967956;28;20038;-71
2020/12/12 00:59:18;;;;;;;39.95;17.10;;;;;;;5.74;100.00;99031.75;4984243;28;20043;-71
2020/12/12 01:01:46;;;;;;;36.72;16.98;;;;;;;5.72;100.00;99031.09;4968439;28;20034;-71
2020/12/12 01:04:12;;;;;;;36.72;16.17;;;;;;;5.71;100.00;99037.41;4968660;28;20443;-72
2020/12/12 01:06:37;;;;;;;37.08;16.63;;;;;;;5.72;100.00;99045.25;4967740;28;20031;-71
2020/12/12 01:09:03;;;;;;;35.38;16.23;;;;;;;5.73;100.00;99043.41;4968893;28;20027;-72
2020/12/12 01:11:28;;;;;;;38.78;16.58;;;;;;;5.75;100.00;99049.38;4969338;28;20047;-72
2020/12/12 01:13:54;;;;;;;36.67;15.55;;;;;;;5.75;100.00;99053.84;4968284;28;20035;-71
2020/12/12 01:16:19;;;;;;;35.55;15.70;;;;;;;5.74;100.00;99054.88;4968331;28;20503;-71
2020/12/12 01:18:45;;;;;;;39.00;16.60;;;;;;;5.74;100.00;99050.38;4967613;28;20053;-71
2020/12/12 01:21:16;;;;;;;42.63;16.20;;;;;;;5.75;100.00;99060.00;4968807;28;20031;-71
2020/12/12 01:23:42;;;;;;;37.92;16.77;;;;;;;5.76;100.00;99060.81;4967841;28;20034;-71
2020/12/12 01:26:07;;;;;;;32.25;15.02;;;;;;;5.78;100.00;99056.19;4969192;28;20094;-71
2020/12/12 01:28:34;;;;;;;32.17;14.75;;;;;;;5.78;100.00;99062.31;4967595;28;20033;-71
2020/12/12 01:31:00;;;;;;;35.90;16.42;;;;;;;5.81;100.00;99061.94;4969082;28;20517;-71
2020/12/12 01:33:25;;;;;;;35.63;16.17;;;;;;;5.82;100.00;99062.78;4967381;28;20027;-71
2020/12/12 01:35:51;;;;;;;31.60;15.23;;;;;;;5.87;100.00;99063.91;4968803;28;20059;-71
2020/12/12 01:38:17;;;;;;;38.45;15.95;;;;;;;5.87;100.00;99066.56;4967954;28;20055;-71
2020/12/12 01:40:43;;;;;;;33.20;15.75;;;;;;;5.87;100.00;99068.38;4972211;28;20507;-71
2020/12/12 01:43:09;;;;;;;30.50;14.80;;;;;;;5.87;100.00;99071.91;4971213;28;20459;-71
2020/12/12 01:45:36;;;;;;;35.97;16.02;;;;;;;5.88;100.00;99073.56;4961853;28;20027;-71
2020/12/12 01:48:01;;;;;;;42.20;15.73;;;;;;;5.89;100.00;99069.06;4967504;28;20031;-71
2020/12/12 01:50:28;;;;;;;32.70;15.23;;;;;;;5.90;100.00;99076.03;4972040;28;20049;-71
2020/12/12 01:52:55;;;;;;;33.83;15.65;;;;;;;5.89;100.00;99075.19;4971107;28;20031;-71
2020/12/12 01:55:21;;;;;;;40.10;15.75;;;;;;;5.91;100.00;99070.53;4972304;28;20031;-72
2020/12/12 01:57:49;;;;;;;39.17;16.60;;;;;;;5.92;100.00;99082.00;4970607;28;20043;-72
2020/12/12 02:00:15;;;;;;;35.95;16.05;;;;;;;5.91;100.00;99085.66;4971867;28;20523;-71
2020/12/12 02:02:46;;;;;;;39.22;16.95;;;;;;;5.91;100.00;99080.34;4986168;28;20073;-71
2020/12/12 02:05:38;;;;;;;41.55;16.40;;;;;;;5.91;100.00;99085.66;4972140;28;20035;-71
2020/12/12 02:08:08;;;;;;;41.35;16.27;;;;;;;5.94;100.00;99088.00;4971243;28;20118;-71
2020/12/12 02:10:35;;;;;;;39.70;16.35;;;;;;;5.96;100.00;99080.66;4971853;28;20109;-71
2020/12/12 02:13:03;;;;;;;42.58;16.33;;;;;;;5.99;100.00;99090.13;4971059;28;20026;-71
2020/12/12 02:15:29;;;;;;;36.08;16.38;;;;;;;6.00;100.00;99095.25;4971717;28;20074;-71
2020/12/12 02:17:54;;;;;;;42.30;15.23;;;;;;;6.01;100.00;99094.25;4970575;28;20061;-71
2020/12/12 02:20:20;;;;;;;45.78;16.30;;;;;;;6.02;100.00;99095.06;4971568;28;20510;-71
2020/12/12 02:22:46;;;;;;;42.53;16.40;;;;;;;6.05;100.00;99090.22;4971722;28;20041;-71
2020/12/12 02:25:12;;;;;;;43.95;15.75;;;;;;;6.05;100.00;99098.22;4986564;28;20119;-71
2020/12/12 02:27:38;;;;;;;39.00;15.77;;;;;;;6.06;100.00;99097.19;4970616;28;20070;-71
2020/12/12 02:30:05;;;;;;;43.42;15.13;;;;;;;6.08;100.00;99097.88;4971657;28;20085;-72
2020/12/12 02:32:31;;;;;;;44.67;15.88;;;;;;;6.07;100.00;99098.84;4971284;28;20043;-71
2020/12/12 02:34:57;;;;;;;38.92;14.70;;;;;;;6.08;100.00;99105.03;4971018;28;20034;-71
2020/12/12 02:37:24;;;;;;;41.42;15.00;;;;;;;6.09;100.00;99104.84;4971142;28;20081;-71
2020/12/12 02:39:50;;;;;;;38.45;15.75;;;;;;;6.10;100.00;99103.00;4970684;28;20038;-71
2020/12/12 02:42:16;;;;;;;45.08;16.50;;;;;;;6.11;100.00;99107.31;4971029;28;20077;-71
2020/12/12 02:44:52;;;;;;;44.38;15.50;;;;;;;6.12;100.00;99106.28;4967113;28;20476;-71
2020/12/12 02:47:18;;;;;;;37.70;14.48;;;;;;;6.14;100.00;99112.28;4962204;28;20038;-71
2020/12/12 02:49:44;;;;;;;40.30;16.55;;;;;;;6.13;100.00;99111.47;4970750;28;20026;-71
2020/12/12 02:52:10;;;;;;;44.65;16.73;;;;;;;6.12;100.00;99107.13;4971143;28;20038;-71
2020/12/12 02:54:36;;;;;;;55.55;16.35;;;;;;;6.13;100.00;99110.63;4970445;28;20035;-71
2020/12/12 02:57:02;;;;;;;47.85;15.77;;;;;;;6.15;100.00;99119.25;4970255;28;20027;-71
2020/12/12 02:59:28;;;;;;;54.92;18.67;;;;;;;6.15;100.00;99119.25;4969087;28;20039;-71
2020/12/12 03:01:53;;;;;;;48.63;15.18;;;;;;;6.16;100.00;99124.41;4970943;28;20169;-71
2020/12/12 03:04:19;;;;;;;49.30;15.82;;;;;;;6.18;100.00;99122.41;4970245;28;20093;-71
2020/12/12 03:06:45;;;;;;;53.15;17.52;;;;;;;6.18;100.00;99118.91;4968500;28;20123;-71
2020/12/12 03:09:11;;;;;;;61.60;17.55;;;;;;;6.18;100.00;99124.25;4966638;28;20035;-71
2020/12/12 03:11:37;;;;;;;60.85;19.20;;;;;;;6.19;100.00;99120.56;4969065;28;20030;-71
2020/12/12 03:14:04;;;;;;;59.88;18.80;;;;;;;6.19;100.00;99133.88;4970230;28;20038;-71
2020/12/12 03:16:29;;;;;;;54.38;18.30;;;;;;;6.18;100.00;99125.06;4969788;28;20038;-71
2020/12/12 03:18:55;;;;;;;57.15;18.08;;;;;;;6.18;100.00;99121.56;4970142;28;20035;-71
2020/12/12 03:21:21;;;;;;;54.70;18.55;;;;;;;6.20;100.00;99133.69;4970762;28;20042;-71
2020/12/12 03:23:46;;;;;;;65.47;19.92;;;;;;;6.19;100.00;99133.88;4969397;28;20039;-71
2020/12/12 03:26:12;;;;;;;61.33;20.15;;;;;;;6.19;100.00;99136.53;4985369;28;20439;-71
2020/12/12 03:28:37;;;;;;;61.60;20.67;;;;;;;6.21;100.00;99135.34;4969278;28;20507;-72
2020/12/12 03:31:03;;;;;;;64.30;19.65;;;;;;;6.25;100.00;99138.47;4970466;28;20031;-71
2020/12/12 03:33:28;;;;;;;58.75;20.30;;;;;;;6.25;100.00;99141.16;4969521;28;20027;-71
2020/12/12 03:35:54;;;;;;;66.25;19.75;;;;;;;6.26;100.00;99144.63;4970466;28;20042;-71
2020/12/12 03:38:19;;;;;;;68.72;20.58;;;;;;;6.24;100.00;99142.16;4967698;28;20125;-71
2020/12/12 03:40:45;;;;;;;81.82;20.63;;;;;;;6.25;100.00;99156.28;4985021;28;20344;-71
2020/12/12 03:43:10;;;;;;;55.10;20.20;;;;;;;6.25;100.00;99150.97;4969392;28;20031;-71
2020/12/12 03:45:36;;;;;;;68.32;20.92;;;;;;;6.24;100.00;99147.47;4970369;28;20286;-71
2020/12/12 03:48:02;;;;;;;78.15;21.27;;;;;;;6.22;100.00;99152.13;4969431;28;20463;-71
2020/12/12 03:53:01;;;;;;;85.05;22.40;;;;;;;6.20;100.00;99151.50;4988929;28;20042;-71
2020/12/12 03:55:27;;;;;;;77.72;22.33;;;;;;;6.18;100.00;99156.19;5006976;28;20061;-72
2020/12/12 03:57:52;;;;;;;86.18;23.30;;;;;;;6.17;100.00;99158.00;5006062;28;20690;-72
2020/12/12 04:00:18;;;;;;;72.97;21.48;;;;;;;6.16;100.00;99156.34;5008123;28;20398;-72
2020/12/12 04:02:43;;;;;;;82.28;23.38;;;;;;;6.16;100.00;99155.53;4989074;28;20479;-71
2020/12/12 04:05:09;;;;;;;68.10;20.90;;;;;;;6.17;100.00;99159.84;4988344;28;20042;-72
2020/12/12 04:07:35;;;;;;;89.75;23.88;;;;;;;6.17;100.00;99154.50;4987797;28;20309;-71
2020/12/12 04:10:00;;;;;;;74.13;22.98;;;;;;;6.17;100.00;99162.50;4988193;28;20030;-71
2020/12/12 04:12:26;;;;;;;77.90;23.45;;;;;;;6.15;100.00;99165.34;5006128;28;20041;-72
2020/12/12 04:14:51;;;;;;;79.97;23.17;;;;;;;6.16;100.00;99168.84;5007661;28;20101;-72
2020/12/12 04:17:17;;;;;;;72.53;20.15;;;;;;;6.16;100.00;99171.50;4993578;28;20383;-72
2020/12/12 04:19:42;;;;;;;74.75;22.98;;;;;;;6.14;100.00;99171.69;5001204;28;20034;-71
2020/12/12 04:22:08;;;;;;;74.97;20.80;;;;;;;6.13;100.00;99174.53;4988241;28;20045;-71
2020/12/12 04:24:33;;;;;;;87.85;23.58;;;;;;;6.10;100.00;99181.03;4987870;28;20033;-72
2020/12/12 04:26:59;;;;;;;77.15;21.23;;;;;;;6.05;100.00;99175.41;4986769;28;20026;-71
2020/12/12 04:29:24;;;;;;;92.00;23.45;;;;;;;6.00;100.00;99172.47;4988207;28;20035;-71
2020/12/12 04:31:50;;;;;;;94.53;23.38;;;;;;;5.95;100.00;99180.16;4988288;28;20034;-71
2020/12/12 04:34:15;;;;;;;80.32;21.63;;;;;;;5.92;100.00;99180.50;4997683;28;20139;-71
2020/12/12 04:36:41;;;;;;;76.47;21.95;;;;;;;5.92;100.00;99183.16;5007102;28;20220;-71
2020/12/12 04:39:06;;;;;;;99.25;25.42;;;;;;;5.92;100.00;99178.69;5007560;28;20066;-71
2020/12/12 04:41:34;;;;;;;105.47;24.70;;;;;;;5.93;100.00;99188.31;5002274;28;20446;-72
2020/12/12 04:44:00;;;;;;;106.45;24.25;;;;;;;5.91;100.00;99192.97;4987949;28;20095;-71
2020/12/12 04:46:27;;;;;;;96.07;22.50;;;;;;;5.90;100.00;99198.44;4976629;28;20034;-71
2020/12/12 04:48:53;;;;;;;90.97;23.23;;;;;;;5.88;100.00;99190.66;4997701;28;20037;-72
2020/12/12 04:51:18;;;;;;;98.85;23.80;;;;;;;5.85;100.00;99204.28;5007265;28;20029;-71
2020/12/12 04:53:44;;;;;;;96.45;23.45;;;;;;;5.84;100.00;99197.31;4992337;28;20088;-72
2020/12/12 04:56:18;;;;;;;114.25;24.08;;;;;;;5.83;100.00;99206.31;4991483;28;20292;-72
2020/12/12 04:58:48;;;;;;;103.70;24.23;;;;;;;5.80;100.00;99206.66;5008222;28;20030;-71
2020/12/12 05:01:16;;;;;;;102.68;24.60;;;;;;;5.79;100.00;99215.66;5000538;28;20467;-71
2020/12/12 05:03:43;;;;;;;104.93;25.02;;;;;;;5.80;100.00;99213.81;4988280;28;20109;-71
2020/12/12 05:06:09;;;;;;;116.05;26.23;;;;;;;5.86;100.00;99223.75;4986983;28;20038;-72
2020/12/12 05:08:34;;;;;;;113.55;26.30;;;;;;;5.90;100.00;99219.75;4988045;28;20023;-72
2020/12/12 05:11:02;;;;;;;103.78;27.45;;;;;;;5.93;100.00;99222.91;4987411;28;20403;-71
2020/12/12 05:13:28;;;;;;;146.35;29.15;;;;;;;5.95;100.00;99226.22;5001501;28;20026;-71
2020/12/12 05:15:55;;;;;;;113.43;26.10;;;;;;;5.96;100.00;99227.06;5010842;28;20040;-71
2020/12/12 05:18:22;;;;;;;136.40;28.95;;;;;;;5.97;100.00;99234.03;4986587;28;20057;-72
2020/12/12 05:20:48;;;;;;;130.40;27.67;;;;;;;5.99;100.00;99233.88;5011036;28;20466;-72
2020/12/12 05:23:17;;;;;;;111.40;26.00;;;;;;;6.00;100.00;99240.84;4998195;28;20061;-71
2020/12/12 05:25:45;;;;;;;151.73;31.13;;;;;;;6.01;100.00;99243.31;4991611;28;20030;-71
2020/12/12 05:28:13;;;;;;;121.78;27.35;;;;;;;6.05;100.00;99249.97;4989990;28;20034;-72
2020/12/12 05:30:40;;;;;;;125.20;28.05;;;;;;;6.06;100.00;99250.78;4991864;28;20467;-71
2020/12/12 05:33:08;;;;;;;133.30;30.42;;;;;;;6.12;100.00;99248.25;4992024;28;20023;-72
2020/12/12 05:35:34;;;;;;;134.98;31.33;;;;;;;6.16;100.00;99246.88;5011162;28;20033;-71
2020/12/12 05:38:02;;;;;;;135.35;30.70;;;;;;;6.25;100.00;99247.66;4996229;28;20034;-71
2020/12/12 05:40:28;;;;;;;141.68;30.13;;;;;;;6.28;100.00;99255.31;4991694;28;20085;-72
2020/12/12 05:42:53;;;;;;;151.70;30.00;;;;;;;6.33;100.00;99254.78;5004655;28;20045;-72
2020/12/12 05:45:19;;;;;;;128.95;29.85;;;;;;;6.33;100.00;99258.28;4991129;28;20109;-72
2020/12/12 05:47:45;;;;;;;116.32;29.50;;;;;;;6.33;100.00;99273.44;4990764;28;20034;-72
2020/12/12 05:50:11;;;;;;;117.53;29.40;;;;;;;6.34;100.00;99261.75;5009605;28;20410;-72
2020/12/12 05:52:41;;;;;;;127.95;29.38;;;;;;;6.32;100.00;99272.56;5004242;28;20058;-72
2020/12/12 05:55:08;;;;;;;158.85;31.15;;;;;;;6.33;100.00;99271.59;5003792;28;20041;-71
2020/12/12 05:57:36;;;;;;;119.00;28.55;;;;;;;6.36;100.00;99273.88;4990449;28;20483;-71
2020/12/12 06:00:05;;;;;;;121.65;27.80;;;;;;;6.39;100.00;99284.19;4988816;28;20424;-71
2020/12/12 06:02:35;;;;;;;146.13;29.17;;;;;;;6.43;100.00;99284.69;5003902;28;20040;-72
2020/12/12 06:05:05;;;;;;;133.32;29.15;;;;;;;6.43;100.00;99285.50;5010948;28;20088;-71
2020/12/12 06:07:32;;;;;;;129.50;27.40;;;;;;;6.47;100.00;99286.78;4994995;28;20041;-71
2020/12/12 06:10:01;;;;;;;126.47;27.05;;;;;;;6.47;100.00;99299.28;4991237;28;20030;-72
2020/12/12 06:12:27;;;;;;;122.97;28.38;;;;;;;6.48;100.00;99298.28;4992592;28;20088;-72
2020/12/12 06:14:56;;;;;;;112.55;27.40;;;;;;;6.48;100.00;99299.13;5010297;28;20390;-72
2020/12/12 06:17:46;;;;;;;115.35;25.92;;;;;;;6.48;100.00;99304.44;4997848;28;20394;-72
2020/12/12 06:20:14;;;;;;;106.47;25.38;;;;;;;6.48;100.00;99315.09;4989916;28;20030;-72
2020/12/12 06:22:42;;;;;;;124.05;26.65;;;;;;;6.47;100.00;99318.75;4972913;28;20026;-71
2020/12/12 06:25:14;;;;;;;138.43;28.15;;;;;;;6.46;100.00;99314.44;4989949;28;20031;-72
2020/12/12 06:27:45;;;;;;;128.00;27.35;;;;;;;6.45;100.00;99314.63;4959574;28;20031;-72
2020/12/12 06:30:13;;;;;;;119.65;26.45;;;;;;;6.44;100.00;99315.63;5003663;28;20033;-71
2020/12/12 06:32:41;;;;;;;102.97;23.33;;;;;;;6.43;100.00;99325.47;4990126;28;20035;-72
2020/12/12 06:35:07;;;;;;;111.45;25.15;;;;;;;6.39;100.00;99321.47;4990587;28;20041;-72
2020/12/12 06:37:37;;;;;;;107.65;25.05;;;;;;;6.41;100.00;99334.63;4989643;28;20041;-72
2020/12/12 06:40:07;;;;;;;111.35;27.35;;;;;;;6.40;100.00;99327.63;4990650;28;20061;-72
2020/12/12 06:42:41;;;;;;;97.47;25.27;;;;;;;6.39;100.00;99329.47;4989877;28;20041;-72
2020/12/12 06:45:13;;;;;;;95.75;23.38;;;;;;;6.39;100.00;99333.97;4986563;28;20027;-72
2020/12/12 06:47:41;;;;;;;93.53;23.77;;;;;;;6.37;100.00;99343.97;4992797;28;20034;-71
2020/12/12 06:50:10;;;;;;;92.72;22.60;;;;;;;6.39;100.00;99344.63;5009716;28;20160;-72
2020/12/12 06:52:36;;;;;;;96.88;22.38;;;;;;;6.43;100.00;99344.09;4995745;28;20125;-72
2020/12/12 06:55:06;;;;;;;86.88;20.90;;;;;;;6.46;100.00;99353.56;4990260;28;20118;-72
2020/12/12 06:57:35;;;;;;;89.55;21.27;;;;;;;6.44;100.00;99353.75;4989206;28;20519;-72
2020/12/12 07:00:02;;;;;;;85.60;20.95;;;;;;;6.43;100.00;99360.09;4990161;28;20036;-72
2020/12/12 07:02:27;;;;;;;86.75;18.92;;;;;;;6.46;100.00;99359.72;5002039;28;20498;-72
2020/12/12 07:04:53;;;;;;;91.22;22.83;;;;;;;6.45;100.00;99371.38;5009042;28;20041;-72
2020/12/12 07:07:19;;;;;;;72.15;18.88;;;;;;;6.45;100.00;99370.56;5007840;28;20032;-72
2020/12/12 07:09:44;;;;;;;85.60;18.88;;;;;;;6.44;100.00;99375.06;4996269;28;20494;-72
2020/12/12 07:12:10;;;;;;;85.28;19.52;;;;;;;6.45;100.00;99379.38;4996311;28;20034;-72
2020/12/12 07:14:37;;;;;;;69.10;17.63;;;;;;;6.47;100.00;99382.69;5007745;28;20053;-72
2020/12/12 07:17:04;;;;;;;75.50;19.08;;;;;;;6.48;100.00;99387.03;4972948;28;20085;-72
2020/12/12 07:19:34;;;;;;;74.20;18.17;;;;;;;6.51;100.00;99388.50;4988632;28;20030;-71
2020/12/12 07:22:00;;;;;;;66.43;17.35;;;;;;;6.47;100.00;99390.69;4988903;28;20041;-72
2020/12/12 07:24:27;;;;;;;72.28;17.20;;;;;;;6.47;100.00;99397.84;4989525;28;20117;-72
2020/12/12 07:26:53;;;;;;;72.65;17.85;;;;;;;6.47;100.00;99393.34;4988396;28;20034;-72
2020/12/12 07:29:19;;;;;;;78.78;19.05;;;;;;;6.45;100.00;99407.84;5009160;28;20250;-72
2020/12/12 07:31:45;;;;;;;68.93;17.70;;;;;;;6.43;100.00;99405.38;5008020;28;20750;-72
2020/12/12 07:34:11;;;;;;;69.57;16.98;;;;;;;6.42;100.00;99411.69;4995676;28;20462;-72
2020/12/12 07:36:37;;;;;;;66.32;17.55;;;;;;;6.41;100.00;99412.69;4971208;28;20038;-72
2020/12/12 07:39:07;;;;;;;82.70;18.70;;;;;;;6.39;100.00;99411.22;4991586;28;20034;-72
2020/12/12 07:41:42;;;;;;;77.32;17.95;;;;;;;6.45;100.00;99422.00;4993747;28;20041;-72
2020/12/12 07:44:07;;;;;;;63.83;17.38;;;;;;;6.40;100.00;99420.88;4996745;28;20038;-71
2020/12/12 07:46:40;;;;;;;73.57;16.88;;;;;;;6.39;100.00;99437.88;4972982;28;20109;-72
2020/12/12 07:49:07;;;;;;;73.22;17.80;;;;;;;6.38;100.00;99437.03;4978446;28;20026;-72
2020/12/12 07:51:34;;;;;;;74.03;18.48;;;;;;;6.39;100.00;99441.34;4989261;28;20034;-72
2020/12/12 07:54:11;;;;;;;74.40;18.75;;;;;;;6.39;100.00;99446.69;4987957;28;20431;-72
2020/12/12 07:56:36;;;;;;;86.22;18.20;;;;;;;6.42;100.00;99453.47;4999836;28;20165;-72
2020/12/12 07:59:07;;;;;;;69.75;17.23;;;;;;;6.41;100.00;99457.97;4985580;28;20125;-72
2020/12/12 08:01:32;;;;;;;85.28;19.67;;;;;;;6.41;100.00;99452.66;4996963;28;20064;-72
2020/12/12 08:03:58;;;;;;;80.85;19.15;;;;;;;6.41;100.00;99460.66;4986443;28;20034;-72
2020/12/12 08:06:27;;;;;;;75.85;19.92;;;;;;;6.42;100.00;99466.81;4986407;28;20423;-72
2020/12/12 08:08:55;;;;;;;84.22;20.10;;;;;;;6.43;100.00;99466.66;4985818;28;20026;-71
2020/12/12 08:11:21;;;;;;;91.47;20.40;;;;;;;6.47;100.00;99475.09;4987624;28;20025;-71
2020/12/12 08:13:47;;;;;;;75.60;21.25;;;;;;;6.48;100.00;99474.13;5005874;28;20053;-71
2020/12/12 08:18:40;;;;;;;77.38;21.50;;;;;;;6.56;100.00;99486.56;4985263;28;20031;-71
2020/12/12 08:21:14;;;;;;;101.32;24.25;;;;;;;6.58;100.00;99485.41;4986401;28;20034;-72
2020/12/12 08:23:41;;;;;;;86.18;22.15;;;;;;;6.63;100.00;99487.56;4986943;28;20037;-72
2020/12/12 08:26:10;;;;;;;84.32;22.52;;;;;;;6.65;100.00;99502.34;4997850;28;20026;-72
2020/12/12 08:28:36;;;;;;;89.00;22.13;;;;;;;6.67;100.00;99507.50;4999796;28;20026;-72
2020/12/12 08:31:10;;;;;;;89.60;20.60;;;;;;;6.69;100.00;99503.66;4998222;28;20052;-72
2020/12/12 08:33:35;;;;;;;84.85;22.58;;;;;;;6.70;100.00;99500.00;4985889;28;20045;-72
2020/12/12 08:36:17;;;;;;;92.10;23.40;;;;;;;6.72;100.00;99510.47;4978035;28;20025;-72
2020/12/12 08:38:52;;;;;;;89.72;22.08;;;;;;;6.72;100.00;99516.63;4970145;28;20042;-72
2020/12/12 08:41:18;;;;;;;77.80;19.58;;;;;;;6.77;100.00;99516.09;4997042;28;20065;-72
2020/12/12 08:43:44;;;;;;;102.88;25.38;;;;;;;6.78;100.00;99520.47;5005115;28;20029;-72
2020/12/12 08:46:14;;;;;;;97.25;21.42;;;;;;;6.79;100.00;99523.94;4980823;28;20644;-72
2020/12/12 08:48:40;;;;;;;111.53;23.35;;;;;;;6.82;100.00;99531.59;5001110;28;20061;-72
2020/12/12 08:51:08;;;;;;;92.65;22.38;;;;;;;6.86;100.00;99533.72;4989935;28;20502;-72
2020/12/12 08:53:34;;;;;;;92.03;23.20;;;;;;;6.93;100.00;99539.22;4990125;28;20030;-72
2020/12/12 08:56:04;;;;;;;93.13;24.05;;;;;;;6.97;100.00;99532.50;4990070;28;20057;-71
2020/12/12 08:58:33;;;;;;;108.53;24.77;;;;;;;7.00;100.00;99534.81;4987196;28;20519;-72
2020/12/12 09:01:09;;;;;;;96.28;24.50;;;;;;;7.05;100.00;99536.97;4992433;28;20101;-72
2020/12/12 09:03:35;;;;;;;101.55;23.75;;;;;;;7.10;100.00;99543.44;4986694;28;20158;-72
2020/12/12 09:06:06;;;;;;;99.80;25.48;;;;;;;7.11;100.00;99542.44;4990534;28;20527;-72
2020/12/12 09:08:32;;;;;;;102.88;25.77;;;;;;;7.16;100.00;99552.56;4989170;28;20088;-72
2020/12/12 09:11:10;;;;;;;106.25;26.98;;;;;;;7.20;100.00;99556.56;4990293;28;20031;-71
2020/12/12 09:13:36;;;;;;;94.60;24.58;;;;;;;7.25;100.00;99557.69;4993771;28;20042;-72
2020/12/12 09:16:02;;;;;;;110.18;26.15;;;;;;;7.33;100.00;99575.50;4995018;28;20026;-71
2020/12/12 09:18:28;;;;;;;107.50;27.05;;;;;;;7.34;100.00;99570.97;4988412;28;20493;-71
2020/12/12 09:20:53;;;;;;;100.93;26.33;;;;;;;7.41;100.00;99580.75;4999763;28;20080;-72
2020/12/12 09:23:19;;;;;;;89.70;24.75;;;;;;;7.40;100.00;99584.44;4989940;28;20030;-71
2020/12/12 09:25:44;;;;;;;102.60;25.85;;;;;;;7.44;100.00;99595.59;4993671;28;20038;-72
2020/12/12 09:28:10;;;;;;;94.40;25.00;;;;;;;7.45;100.00;99592.75;4990232;28;20034;-72
2020/12/12 09:30:35;;;;;;;106.60;25.75;;;;;;;7.46;100.00;99602.41;4996988;28;20485;-72
2020/12/12 09:33:01;;;;;;;87.82;24.70;;;;;;;7.47;100.00;99600.56;4990488;28;20030;-72
2020/12/12 09:35:27;;;;;;;99.65;27.05;;;;;;;7.48;100.00;99594.22;4994271;28;20034;-72
2020/12/12 09:37:54;;;;;;;100.03;25.38;;;;;;;7.46;100.00;99599.75;4996478;28;20391;-72
2020/12/12 09:40:19;;;;;;;107.38;27.23;;;;;;;7.47;100.00;99605.91;4971431;28;20116;-71
2020/12/12 09:42:45;;;;;;;109.50;26.23;;;;;;;7.46;100.00;99621.09;4989548;28;20089;-71
2020/12/12 09:45:10;;;;;;;114.07;25.55;;;;;;;7.50;100.00;99624.25;4984513;28;20109;-71
2020/12/12 09:47:36;;;;;;;115.57;28.60;;;;;;;7.47;100.00;99621.91;4963703;28;20399;-71
2020/12/12 09:50:01;;;;;;;109.03;26.65;;;;;;;7.52;100.00;99622.22;5005994;28;20085;-71
2020/12/12 09:52:27;;;;;;;105.55;26.08;;;;;;;7.58;100.00;99623.34;5003611;28;20553;-72
2020/12/12 09:54:52;;;;;;;124.28;27.25;;;;;;;7.55;100.00;99631.72;5006017;28;20442;-72
2020/12/12 09:57:18;;;;;;;103.70;26.55;;;;;;;7.54;100.00;99633.56;4997799;28;20062;-72
2020/12/12 09:59:43;;;;;;;126.40;28.33;;;;;;;7.63;100.00;99639.66;4969732;28;20487;-72
2020/12/12 10:02:09;;;;;;;100.40;26.30;;;;;;;7.58;100.00;99634.88;4988971;28;20491;-72
2020/12/12 10:04:34;;;;;;;113.85;27.83;;;;;;;7.56;100.00;99642.22;4992648;28;20054;-72
2020/12/12 10:07:00;;;;;;;107.15;26.40;;;;;;;7.62;100.00;99646.84;5004383;28;20080;-72
2020/12/12 10:09:25;;;;;;;117.15;27.60;;;;;;;7.72;100.00;99651.94;5000967;28;20335;-72
2020/12/12 10:11:51;;;;;;;109.43;26.65;;;;;;;7.72;100.00;99652.78;4987199;28;20491;-72
2020/12/12 10:14:17;;;;;;;105.15;26.67;;;;;;;7.73;100.00;99654.47;4978973;28;20041;-72
2020/12/12 10:16:42;;;;;;;117.53;28.42;;;;;;;7.80;100.00;99659.91;4987271;28;20875;-72
2020/12/12 10:19:08;;;;;;;122.18;28.35;;;;;;;7.78;100.00;99665.44;4990928;28;20712;-72
2020/12/12 10:21:36;;;;;;;103.80;25.70;;;;;;;7.84;100.00;99658.56;4998032;28;20045;-72
2020/12/12 10:24:01;;;;;;;116.85;27.20;;;;;;;7.83;100.00;99662.25;5000556;28;20126;-72
2020/12/12 10:26:27;;;;;;;99.03;25.58;;;;;;;7.86;100.00;99666.38;4998655;28;20109;-72
2020/12/12 10:28:52;;;;;;;110.18;25.67;;;;;;;7.89;100.00;99666.88;5006590;28;20112;-70
2020/12/12 10:31:18;;;;;;;109.45;29.35;;;;;;;7.98;100.00;99668.47;5007554;28;20030;-72
2020/12/12 10:33:43;;;;;;;103.03;25.60;;;;;;;7.98;100.00;99662.28;4990592;28;20045;-72
2020/12/12 10:36:09;;;;;;;118.10;34.05;;;;;;;8.11;100.00;99670.53;4997115;28;20065;-71
2020/12/12 10:38:35;;;;;;;89.03;25.48;;;;;;;8.14;100.00;99667.53;5003564;28;20481;-72
2020/12/12 10:41:04;;;;;;;106.40;28.88;;;;;;;8.16;100.00;99668.16;4987899;28;20499;-72
2020/12/12 10:43:30;;;;;;;104.70;27.38;;;;;;;8.11;100.00;99675.88;4970213;28;20057;-71
2020/12/12 10:45:56;;;;;;;102.10;27.17;;;;;;;8.21;100.00;99676.47;4986893;28;20487;-71
2020/12/12 10:48:23;;;;;;;104.00;28.33;;;;;;;8.15;100.00;99682.53;4987124;28;20419;-72
2020/12/12 10:50:48;;;;;;;96.75;25.80;;;;;;;8.13;100.00;99683.72;4998126;28;20057;-72
2020/12/12 10:53:14;;;;;;;95.18;27.15;;;;;;;8.17;100.00;99683.19;4993833;28;20088;-72
2020/12/12 10:55:40;;;;;;;100.75;27.95;;;;;;;8.27;100.00;99682.94;4996859;28;20121;-73
2020/12/12 10:58:05;;;;;;;90.88;24.95;;;;;;;8.32;100.00;99678.72;4990644;28;20406;-72
2020/12/12 11:00:39;;;;;;;116.03;26.15;;;;;;;8.38;100.00;99684.38;5005638;28;20108;-72
2020/12/12 11:03:06;;;;;;;107.70;28.38;;;;;;;8.41;100.00;99681.34;5000278;28;20142;-72
2020/12/12 11:05:31;;;;;;;101.43;29.38;;;;;;;8.37;100.00;99686.22;4988948;28;20030;-72
2020/12/12 11:07:57;;;;;;;96.43;28.23;;;;;;;8.33;100.00;99692.91;4999883;28;20545;-72
2020/12/12 11:10:22;;;;;;;89.43;26.05;;;;;;;8.30;100.00;99680.75;4996697;28;20037;-72
2020/12/12 11:12:49;;;;;;;95.13;26.60;;;;;;;8.32;100.00;99689.41;5002207;28;20088;-72
2020/12/12 11:15:15;;;;;;;93.63;27.50;;;;;;;8.31;100.00;99698.44;4997009;28;20552;-72
2020/12/12 11:17:41;;;;;;;91.05;24.83;;;;;;;8.26;100.00;99705.31;5006583;28;20030;-72